Aérodrome :
LOGIN :

S'inscrire | Disclaimer

   EN    FR    IT 

 










Légende :    VFR   VFR Marginal   IFR   IFR Intensif   IFR Très Intensif
Visi : 
Plafond : 
>= 8 km
>= 3000ft
5 à 8 km
1000 à 3000 ft
1500m à 5 km
500 à 1000 ft
800 à 1500m
200 à 500 ft
< 800m
< 200 ft
Symboles :   Orages  Brouillard  Fortes neiges  Fortes précipitations  Vent > 20 kt
SIGMETs :   Divers  Orages  Givrage  Turbulence  Onde Orograph.  Cendres Volcan.






- Altitude de l'aérodrome : 436 ft
- Code IATA : ANG


LFBU - Angoulême Brie Champniers

DERNIER METAR :
  • 150130Z AUTO 19009KT 160V230 CAVOK 12/09 Q1006

METARs EXPIRÉS :
  • 150100Z AUTO 18008KT 9999 -RA NSC 11/09 Q1007
  • 150030Z AUTO 18006KT 9999 -RA ///TCU 11/09 Q1007
  • 150000Z AUTO 18007KT CAVOK 12/09 Q1007
  • 142330Z AUTO 19008KT 170V230 9999 -RA BKN042/// BKN049/// OVC062/// ///TCU 12/09 Q1007
  • 142300Z AUTO 22010KT 180V240 9999 -RA FEW039/// BKN047/// BKN060/// ///TCU 12/09 Q1008

TAF AMD TAF LFBU
Valide du 14 à 18h jusqu'au 15 à 18h UTC


141828Z 1418/1518 24010KT 9999 OVC020
TEMPO 1418/1421 BKN009
PROB40 1503/1507 21015G25KT 2000 RA BKN002 OVC008
TEMPO 1514/1518 4000 RA BKN010



MET'MAP, la Météo Aéronautique d'un coup d'oeil ! - Copyright ORBIFLY Décembre 2007 - Disclaimer

ORBIFLY MET'MAP TEAM :

Programmation & Développement : Alexandra Zaïnal
Sur une idée originale de : Baudouin d'Aumeries
Assistance à la programmation : Marc-Olivier Méhu
Soutien technique & logistique : Manuel Goepfert

Contact : metmap@orbifly.com




SOURCES & CREDITS :

   NOAA